sensor_id;sensor_type;location;lat;lon;timestamp;pressure;altitude;pressure_sealevel;temperature;humidity
75886;BME280;64561;44.018;10.144;2024-03-07T00:01:34;101712.03;;;7.24;100.00
75886;BME280;64561;44.018;10.144;2024-03-07T00:04:02;101716.59;;;7.30;100.00
75886;BME280;64561;44.018;10.144;2024-03-07T00:06:30;101710.38;;;7.25;99.63
75886;BME280;64561;44.018;10.144;2024-03-07T00:08:57;101710.00;;;7.17;99.91
75886;BME280;64561;44.018;10.144;2024-03-07T00:11:24;101711.19;;;7.07;100.00
75886;BME280;64561;44.018;10.144;2024-03-07T00:13:51;101715.84;;;7.00;100.00
75886;BME280;64561;44.018;10.144;2024-03-07T00:16:18;101714.91;;;6.98;100.00
75886;BME280;64561;44.018;10.144;2024-03-07T00:18:46;101709.19;;;7.02;100.00
75886;BME280;64561;44.018;10.144;2024-03-07T00:21:13;101705.03;;;7.04;100.00
75886;BME280;64561;44.018;10.144;2024-03-07T00:23:40;101711.03;;;7.04;100.00
75886;BME280;64561;44.018;10.144;2024-03-07T00:26:08;101713.78;;;7.09;100.00
75886;BME280;64561;44.018;10.144;2024-03-07T00:28:35;101705.53;;;7.13;100.00
75886;BME280;64561;44.018;10.144;2024-03-07T00:31:06;101707.19;;;7.13;100.00
75886;BME280;64561;44.018;10.144;2024-03-07T00:33:37;101706.78;;;7.21;100.00
75886;BME280;64561;44.018;10.144;2024-03-07T00:36:24;101704.41;;;7.24;100.00
75886;BME280;64561;44.018;10.144;2024-03-07T00:38:52;101706.78;;;7.21;99.16
75886;BME280;64561;44.018;10.144;2024-03-07T00:41:19;101700.13;;;7.23;99.75
75886;BME280;64561;44.018;10.144;2024-03-07T00:43:47;101704.97;;;7.19;99.28
75886;BME280;64561;44.018;10.144;2024-03-07T00:46:14;101702.19;;;7.14;99.03
75886;BME280;64561;44.018;10.144;2024-03-07T00:48:41;101711.25;;;7.09;98.79
75886;BME280;64561;44.018;10.144;2024-03-07T00:51:08;101722.38;;;6.95;100.00
75886;BME280;64561;44.018;10.144;2024-03-07T00:53:36;101715.84;;;6.83;100.00
75886;BME280;64561;44.018;10.144;2024-03-07T00:56:03;101720.56;;;6.92;100.00
75886;BME280;64561;44.018;10.144;2024-03-07T00:58:32;101717.91;;;6.91;100.00
75886;BME280;64561;44.018;10.144;2024-03-07T01:00:59;101706.28;;;6.79;100.00
75886;BME280;64561;44.018;10.144;2024-03-07T01:03:27;101717.28;;;6.78;100.00
75886;BME280;64561;44.018;10.144;2024-03-07T01:05:54;101712.19;;;6.78;100.00
75886;BME280;64561;44.018;10.144;2024-03-07T01:08:21;101725.16;;;6.83;100.00
75886;BME280;64561;44.018;10.144;2024-03-07T01:10:48;101719.56;;;6.74;100.00
75886;BME280;64561;44.018;10.144;2024-03-07T01:13:16;101719.00;;;6.63;100.00
75886;BME280;64561;44.018;10.144;2024-03-07T01:15:49;101715.78;;;6.51;100.00
75886;BME280;64561;44.018;10.144;2024-03-07T01:18:16;101711.63;;;6.53;100.00
75886;BME280;64561;44.018;10.144;2024-03-07T01:20:44;101715.84;;;6.52;100.00
75886;BME280;64561;44.018;10.144;2024-03-07T01:23:11;101707.09;;;6.62;100.00
75886;BME280;64561;44.018;10.144;2024-03-07T01:25:39;101706.59;;;6.69;100.00
75886;BME280;64561;44.018;10.144;2024-03-07T01:28:07;101705.19;;;6.74;100.00
75886;BME280;64561;44.018;10.144;2024-03-07T01:30:34;101699.47;;;6.78;100.00
75886;BME280;64561;44.018;10.144;2024-03-07T01:33:01;101695.25;;;6.79;100.00
75886;BME280;64561;44.018;10.144;2024-03-07T01:35:29;101702.72;;;6.76;99.73
75886;BME280;64561;44.018;10.144;2024-03-07T01:37:56;101697.78;;;6.62;100.00
75886;BME280;64561;44.018;10.144;2024-03-07T01:40:23;101702.44;;;6.55;100.00
75886;BME280;64561;44.018;10.144;2024-03-07T01:42:50;101699.03;;;6.54;100.00
75886;BME280;64561;44.018;10.144;2024-03-07T01:45:18;101701.66;;;6.56;100.00
75886;BME280;64561;44.018;10.144;2024-03-07T01:47:45;101698.59;;;6.47;100.00
75886;BME280;64561;44.018;10.144;2024-03-07T01:50:14;101693.34;;;6.44;100.00
75886;BME280;64561;44.018;10.144;2024-03-07T01:52:42;101695.38;;;6.34;100.00
75886;BME280;64561;44.018;10.144;2024-03-07T01:55:09;101696.81;;;6.29;100.00
75886;BME280;64561;44.018;10.144;2024-03-07T01:57:41;101693.47;;;6.30;100.00
75886;BME280;64561;44.018;10.144;2024-03-07T02:00:09;101694.78;;;6.38;100.00
75886;BME280;64561;44.018;10.144;2024-03-07T02:02:36;101691.78;;;6.46;100.00
75886;BME280;64561;44.018;10.144;2024-03-07T02:05:04;101690.59;;;6.55;100.00
75886;BME280;64561;44.018;10.144;2024-03-07T02:07:33;101686.47;;;6.57;100.00
75886;BME280;64561;44.018;10.144;2024-03-07T02:10:01;101689.19;;;6.60;100.00
75886;BME280;64561;44.018;10.144;2024-03-07T02:12:30;101690.84;;;6.60;100.00
75886;BME280;64561;44.018;10.144;2024-03-07T02:14:58;101696.66;;;6.57;100.00
75886;BME280;64561;44.018;10.144;2024-03-07T02:17:26;101692.25;;;6.55;100.00
75886;BME280;64561;44.018;10.144;2024-03-07T02:19:54;101702.88;;;6.62;99.05
75886;BME280;64561;44.018;10.144;2024-03-07T02:22:22;101684.09;;;6.60;100.00
75886;BME280;64561;44.018;10.144;2024-03-07T02:24:49;101691.50;;;6.56;99.60
75886;BME280;64561;44.018;10.144;2024-03-07T02:27:16;101692.09;;;6.52;100.00
75886;BME280;64561;44.018;10.144;2024-03-07T02:29:44;101695.34;;;6.49;99.88
75886;BME280;64561;44.018;10.144;2024-03-07T02:32:11;101697.66;;;6.45;100.00
75886;BME280;64561;44.018;10.144;2024-03-07T02:34:39;101695.38;;;6.34;100.00
75886;BME280;64561;44.018;10.144;2024-03-07T02:37:06;101691.06;;;6.17;100.00
75886;BME280;64561;44.018;10.144;2024-03-07T02:39:33;101695.16;;;6.15;100.00
75886;BME280;64561;44.018;10.144;2024-03-07T02:42:00;101685.53;;;6.09;100.00
75886;BME280;64561;44.018;10.144;2024-03-07T02:44:28;101681.59;;;6.14;100.00
75886;BME280;64561;44.018;10.144;2024-03-07T02:46:55;101685.50;;;6.24;100.00
75886;BME280;64561;44.018;10.144;2024-03-07T02:49:22;101677.09;;;6.25;100.00
75886;BME280;64561;44.018;10.144;2024-03-07T02:51:49;101676.69;;;6.17;100.00
75886;BME280;64561;44.018;10.144;2024-03-07T02:54:16;101672.00;;;6.25;100.00
75886;BME280;64561;44.018;10.144;2024-03-07T02:56:44;101675.63;;;6.29;100.00
75886;BME280;64561;44.018;10.144;2024-03-07T02:59:12;101664.88;;;6.34;100.00
75886;BME280;64561;44.018;10.144;2024-03-07T03:01:40;101669.09;;;6.34;100.00
75886;BME280;64561;44.018;10.144;2024-03-07T03:04:08;101668.31;;;6.35;100.00
75886;BME280;64561;44.018;10.144;2024-03-07T03:06:35;101672.19;;;6.13;100.00
75886;BME280;64561;44.018;10.144;2024-03-07T03:09:02;101664.59;;;5.99;100.00
75886;BME280;64561;44.018;10.144;2024-03-07T03:11:31;101678.81;;;5.95;100.00
75886;BME280;64561;44.018;10.144;2024-03-07T03:13:58;101675.50;;;5.96;100.00
75886;BME280;64561;44.018;10.144;2024-03-07T03:16:25;101675.91;;;6.04;100.00
75886;BME280;64561;44.018;10.144;2024-03-07T03:19:13;101674.06;;;6.01;100.00
75886;BME280;64561;44.018;10.144;2024-03-07T03:21:40;101677.03;;;6.09;100.00
75886;BME280;64561;44.018;10.144;2024-03-07T03:24:07;101673.09;;;6.14;100.00
75886;BME280;64561;44.018;10.144;2024-03-07T03:26:35;101670.63;;;6.15;100.00
75886;BME280;64561;44.018;10.144;2024-03-07T03:29:02;101675.66;;;6.14;100.00
75886;BME280;64561;44.018;10.144;2024-03-07T03:31:29;101674.75;;;6.13;100.00
75886;BME280;64561;44.018;10.144;2024-03-07T03:33:56;101675.66;;;6.14;100.00
75886;BME280;64561;44.018;10.144;2024-03-07T03:36:24;101680.38;;;6.08;100.00
75886;BME280;64561;44.018;10.144;2024-03-07T03:38:52;101684.22;;;6.01;100.00
75886;BME280;64561;44.018;10.144;2024-03-07T03:41:19;101670.66;;;6.01;100.00
75886;BME280;64561;44.018;10.144;2024-03-07T03:43:46;101672.50;;;6.03;100.00
75886;BME280;64561;44.018;10.144;2024-03-07T03:46:16;101675.31;;;6.08;100.00
75886;BME280;64561;44.018;10.144;2024-03-07T03:48:44;101677.28;;;6.13;100.00
75886;BME280;64561;44.018;10.144;2024-03-07T03:51:11;101671.59;;;6.17;100.00
75886;BME280;64561;44.018;10.144;2024-03-07T03:53:40;101674.16;;;6.17;100.00
75886;BME280;64561;44.018;10.144;2024-03-07T03:56:10;101677.38;;;6.15;100.00
75886;BME280;64561;44.018;10.144;2024-03-07T03:58:42;101677.03;;;6.24;100.00
75886;BME280;64561;44.018;10.144;2024-03-07T04:01:10;101672.78;;;5.93;100.00
75886;BME280;64561;44.018;10.144;2024-03-07T04:03:40;101674.59;;;5.81;100.00
75886;BME280;64561;44.018;10.144;2024-03-07T04:06:07;101681.06;;;5.90;100.00
75886;BME280;64561;44.018;10.144;2024-03-07T04:08:34;101682.63;;;5.88;100.00
75886;BME280;64561;44.018;10.144;2024-03-07T04:11:04;101677.31;;;5.69;100.00
75886;BME280;64561;44.018;10.144;2024-03-07T04:13:32;101676.78;;;5.60;100.00
75886;BME280;64561;44.018;10.144;2024-03-07T04:15:59;101669.34;;;5.63;100.00
75886;BME280;64561;44.018;10.144;2024-03-07T04:18:26;101674.03;;;5.71;100.00
75886;BME280;64561;44.018;10.144;2024-03-07T04:20:53;101677.03;;;5.64;100.00
75886;BME280;64561;44.018;10.144;2024-03-07T04:23:21;101656.72;;;5.49;100.00
75886;BME280;64561;44.018;10.144;2024-03-07T04:25:48;101673.34;;;5.59;100.00
75886;BME280;64561;44.018;10.144;2024-03-07T04:28:15;101670.63;;;5.71;100.00
75886;BME280;64561;44.018;10.144;2024-03-07T04:30:42;101671.78;;;5.76;100.00
75886;BME280;64561;44.018;10.144;2024-03-07T04:33:09;101677.66;;;5.75;100.00
75886;BME280;64561;44.018;10.144;2024-03-07T04:35:37;101675.00;;;5.73;100.00
75886;BME280;64561;44.018;10.144;2024-03-07T04:38:04;101671.94;;;5.79;100.00
75886;BME280;64561;44.018;10.144;2024-03-07T04:40:37;101670.22;;;5.78;100.00
75886;BME280;64561;44.018;10.144;2024-03-07T04:43:06;101668.03;;;5.69;100.00
75886;BME280;64561;44.018;10.144;2024-03-07T04:45:33;101668.44;;;5.77;100.00
75886;BME280;64561;44.018;10.144;2024-03-07T04:48:01;101668.03;;;5.84;100.00
75886;BME280;64561;44.018;10.144;2024-03-07T04:50:28;101678.34;;;5.87;100.00
75886;BME280;64561;44.018;10.144;2024-03-07T04:52:56;101674.22;;;5.89;100.00
75886;BME280;64561;44.018;10.144;2024-03-07T04:55:23;101674.31;;;5.76;100.00
75886;BME280;64561;44.018;10.144;2024-03-07T04:57:50;101681.66;;;5.86;100.00
75886;BME280;64561;44.018;10.144;2024-03-07T05:00:18;101684.38;;;5.89;100.00
75886;BME280;64561;44.018;10.144;2024-03-07T05:02:49;101685.34;;;5.91;100.00
75886;BME280;64561;44.018;10.144;2024-03-07T05:05:18;101679.75;;;5.82;100.00
75886;BME280;64561;44.018;10.144;2024-03-07T05:07:51;101685.16;;;5.88;100.00
75886;BME280;64561;44.018;10.144;2024-03-07T05:10:18;101686.84;;;5.73;100.00
75886;BME280;64561;44.018;10.144;2024-03-07T05:12:45;101688.41;;;5.71;100.00
75886;BME280;64561;44.018;10.144;2024-03-07T05:15:12;101694.28;;;5.70;100.00
75886;BME280;64561;44.018;10.144;2024-03-07T05:17:39;101688.91;;;5.65;100.00
75886;BME280;64561;44.018;10.144;2024-03-07T05:20:10;101691.56;;;5.67;100.00
75886;BME280;64561;44.018;10.144;2024-03-07T05:22:40;101683.94;;;5.67;100.00
75886;BME280;64561;44.018;10.144;2024-03-07T05:25:08;101687.53;;;5.70;100.00
75886;BME280;64561;44.018;10.144;2024-03-07T05:27:36;101693.66;;;5.74;100.00
75886;BME280;64561;44.018;10.144;2024-03-07T05:30:03;101695.09;;;5.84;100.00
75886;BME280;64561;44.018;10.144;2024-03-07T05:32:37;101692.09;;;5.76;100.00
75886;BME280;64561;44.018;10.144;2024-03-07T05:35:06;101697.06;;;5.74;100.00
75886;BME280;64561;44.018;10.144;2024-03-07T05:37:33;101706.63;;;5.79;100.00
75886;BME280;64561;44.018;10.144;2024-03-07T05:40:00;101700.91;;;5.68;100.00
75886;BME280;64561;44.018;10.144;2024-03-07T05:42:31;101704.78;;;5.61;99.34
75886;BME280;64561;44.018;10.144;2024-03-07T05:44:59;101703.00;;;5.45;100.00
75886;BME280;64561;44.018;10.144;2024-03-07T05:47:30;101704.31;;;5.39;100.00
75886;BME280;64561;44.018;10.144;2024-03-07T05:49:57;101705.69;;;5.34;100.00
75886;BME280;64561;44.018;10.144;2024-03-07T05:52:25;101706.81;;;5.24;100.00
75886;BME280;64561;44.018;10.144;2024-03-07T05:54:52;101714.31;;;5.22;100.00
75886;BME280;64561;44.018;10.144;2024-03-07T05:57:19;101712.84;;;5.26;100.00
75886;BME280;64561;44.018;10.144;2024-03-07T05:59:46;101710.75;;;5.19;100.00
75886;BME280;64561;44.018;10.144;2024-03-07T06:02:14;101716.31;;;5.13;100.00
75886;BME280;64561;44.018;10.144;2024-03-07T06:04:43;101727.34;;;5.14;100.00
75886;BME280;64561;44.018;10.144;2024-03-07T06:07:10;101724.22;;;5.18;100.00
75886;BME280;64561;44.018;10.144;2024-03-07T06:09:38;101718.34;;;5.19;100.00
75886;BME280;64561;44.018;10.144;2024-03-07T06:12:05;101725.47;;;5.24;100.00
75886;BME280;64561;44.018;10.144;2024-03-07T06:14:48;101728.34;;;5.31;100.00
75886;BME280;64561;44.018;10.144;2024-03-07T06:17:16;101729.41;;;5.34;100.00
75886;BME280;64561;44.018;10.144;2024-03-07T06:19:48;101729.69;;;5.39;100.00
75886;BME280;64561;44.018;10.144;2024-03-07T06:22:15;101729.44;;;5.49;100.00
75886;BME280;64561;44.018;10.144;2024-03-07T06:24:42;101737.78;;;5.61;100.00
75886;BME280;64561;44.018;10.144;2024-03-07T06:27:10;101727.19;;;5.68;100.00
75886;BME280;64561;44.018;10.144;2024-03-07T06:29:43;101737.97;;;5.79;100.00
75886;BME280;64561;44.018;10.144;2024-03-07T06:32:10;101737.97;;;5.79;100.00
75886;BME280;64561;44.018;10.144;2024-03-07T06:34:39;101733.06;;;5.82;100.00
75886;BME280;64561;44.018;10.144;2024-03-07T06:37:06;101737.53;;;5.86;100.00
75886;BME280;64561;44.018;10.144;2024-03-07T06:39:33;101738.00;;;5.94;100.00
75886;BME280;64561;44.018;10.144;2024-03-07T06:42:00;101735.91;;;6.02;100.00
75886;BME280;64561;44.018;10.144;2024-03-07T06:44:28;101739.94;;;6.13;100.00
75886;BME280;64561;44.018;10.144;2024-03-07T06:46:55;101742.81;;;6.19;100.00
75886;BME280;64561;44.018;10.144;2024-03-07T06:49:24;101736.97;;;6.20;100.00
75886;BME280;64561;44.018;10.144;2024-03-07T06:51:51;101749.22;;;6.27;100.00
75886;BME280;64561;44.018;10.144;2024-03-07T06:54:21;101748.91;;;6.37;100.00
75886;BME280;64561;44.018;10.144;2024-03-07T06:56:48;101745.94;;;6.45;100.00
75886;BME280;64561;44.018;10.144;2024-03-07T06:59:16;101738.50;;;6.48;100.00
75886;BME280;64561;44.018;10.144;2024-03-07T07:01:45;101748.41;;;6.43;100.00
75886;BME280;64561;44.018;10.144;2024-03-07T07:04:13;101744.50;;;6.50;100.00
75886;BME280;64561;44.018;10.144;2024-03-07T07:06:42;101748.53;;;6.61;100.00
75886;BME280;64561;44.018;10.144;2024-03-07T07:09:10;101742.53;;;6.75;100.00
75886;BME280;64561;44.018;10.144;2024-03-07T07:11:37;101744.31;;;6.93;100.00
75886;BME280;64561;44.018;10.144;2024-03-07T07:14:04;101749.34;;;7.07;100.00
75886;BME280;64561;44.018;10.144;2024-03-07T07:16:31;101744.97;;;7.21;100.00
75886;BME280;64561;44.018;10.144;2024-03-07T07:19:02;101741.31;;;7.32;100.00
75886;BME280;64561;44.018;10.144;2024-03-07T07:21:30;101740.38;;;7.47;100.00
75886;BME280;64561;44.018;10.144;2024-03-07T07:23:57;101740.13;;;7.59;100.00
75886;BME280;64561;44.018;10.144;2024-03-07T07:26:24;101742.41;;;7.70;100.00
75886;BME280;64561;44.018;10.144;2024-03-07T07:28:53;101734.28;;;7.77;100.00
75886;BME280;64561;44.018;10.144;2024-03-07T07:31:21;101744.84;;;7.85;100.00
75886;BME280;64561;44.018;10.144;2024-03-07T07:33:49;101748.44;;;7.89;100.00
75886;BME280;64561;44.018;10.144;2024-03-07T07:36:16;101745.31;;;7.94;100.00
75886;BME280;64561;44.018;10.144;2024-03-07T07:38:43;101747.06;;;7.95;100.00
75886;BME280;64561;44.018;10.144;2024-03-07T07:41:11;101754.75;;;7.97;100.00
75886;BME280;64561;44.018;10.144;2024-03-07T07:43:39;101743.06;;;8.00;100.00
75886;BME280;64561;44.018;10.144;2024-03-07T07:46:09;101745.00;;;8.06;100.00
75886;BME280;64561;44.018;10.144;2024-03-07T07:48:37;101739.34;;;8.12;100.00
75886;BME280;64561;44.018;10.144;2024-03-07T07:51:06;101743.72;;;8.14;99.33
75886;BME280;64561;44.018;10.144;2024-03-07T07:53:34;101741.56;;;8.22;99.07
75886;BME280;64561;44.018;10.144;2024-03-07T07:56:02;101743.72;;;8.32;97.37
75886;BME280;64561;44.018;10.144;2024-03-07T07:58:29;101742.47;;;8.40;96.34
75886;BME280;64561;44.018;10.144;2024-03-07T08:00:56;101745.22;;;8.45;97.60
75886;BME280;64561;44.018;10.144;2024-03-07T08:03:24;101749.00;;;8.53;96.21
75886;BME280;64561;44.018;10.144;2024-03-07T08:05:51;101742.50;;;8.60;94.99
75886;BME280;64561;44.018;10.144;2024-03-07T08:08:18;101737.69;;;8.66;95.59
75886;BME280;64561;44.018;10.144;2024-03-07T08:10:47;101736.31;;;8.73;95.46
75886;BME280;64561;44.018;10.144;2024-03-07T08:13:15;101734.66;;;8.73;94.71
75886;BME280;64561;44.018;10.144;2024-03-07T08:15:43;101739.81;;;8.75;96.12
75886;BME280;64561;44.018;10.144;2024-03-07T08:18:10;101742.63;;;8.81;96.30
75886;BME280;64561;44.018;10.144;2024-03-07T08:20:39;101740.34;;;8.87;94.01
75886;BME280;64561;44.018;10.144;2024-03-07T08:23:07;101734.66;;;8.92;92.28
75886;BME280;64561;44.018;10.144;2024-03-07T08:25:35;101738.78;;;9.08;94.09
75886;BME280;64561;44.018;10.144;2024-03-07T08:28:03;101733.16;;;9.15;92.90
75886;BME280;64561;44.018;10.144;2024-03-07T08:30:32;101735.25;;;9.24;90.83
75886;BME280;64561;44.018;10.144;2024-03-07T08:33:00;101738.66;;;9.25;88.83
75886;BME280;64561;44.018;10.144;2024-03-07T08:35:30;101727.56;;;9.24;90.55
75886;BME280;64561;44.018;10.144;2024-03-07T08:37:57;101729.72;;;9.34;92.68
75886;BME280;64561;44.018;10.144;2024-03-07T08:40:26;101726.91;;;9.48;92.73
75886;BME280;64561;44.018;10.144;2024-03-07T08:42:59;101731.09;;;9.67;92.59
75886;BME280;64561;44.018;10.144;2024-03-07T08:45:28;101731.28;;;9.71;89.83
75886;BME280;64561;44.018;10.144;2024-03-07T08:47:56;101731.09;;;9.67;89.84
75886;BME280;64561;44.018;10.144;2024-03-07T08:50:26;101740.63;;;9.71;91.39
75886;BME280;64561;44.018;10.144;2024-03-07T08:52:55;101734.41;;;9.85;90.91
75886;BME280;64561;44.018;10.144;2024-03-07T08:55:24;101744.16;;;9.94;90.72
75886;BME280;64561;44.018;10.144;2024-03-07T08:57:52;101735.53;;;9.92;90.79
75886;BME280;64561;44.018;10.144;2024-03-07T09:00:19;101739.22;;;9.98;91.32
75886;BME280;64561;44.018;10.144;2024-03-07T09:02:56;101741.97;;;10.03;90.27
75886;BME280;64561;44.018;10.144;2024-03-07T09:05:30;101719.59;;;9.97;90.12
75886;BME280;64561;44.018;10.144;2024-03-07T09:08:01;101738.84;;;10.10;88.18
75886;BME280;64561;44.018;10.144;2024-03-07T09:10:30;101733.47;;;10.25;89.53
75886;BME280;64561;44.018;10.144;2024-03-07T09:12:58;101740.16;;;10.42;89.00
75886;BME280;64561;44.018;10.144;2024-03-07T09:15:26;101735.25;;;10.47;88.03
75886;BME280;64561;44.018;10.144;2024-03-07T09:17:54;101730.28;;;10.51;88.10
75886;BME280;64561;44.018;10.144;2024-03-07T09:20:22;101733.78;;;10.53;87.76
75886;BME280;64561;44.018;10.144;2024-03-07T09:22:51;101733.09;;;10.58;86.31
75886;BME280;64561;44.018;10.144;2024-03-07T09:25:23;101735.38;;;10.72;87.48
75886;BME280;64561;44.018;10.144;2024-03-07T09:27:53;101736.47;;;10.79;85.89
75886;BME280;64561;44.018;10.144;2024-03-07T09:30:22;101733.22;;;10.83;85.58
75886;BME280;64561;44.018;10.144;2024-03-07T09:32:54;101730.78;;;10.86;86.12
75886;BME280;64561;44.018;10.144;2024-03-07T09:35:23;101730.63;;;11.06;82.98
75886;BME280;64561;44.018;10.144;2024-03-07T09:37:51;101729.91;;;11.10;82.99
75886;BME280;64561;44.018;10.144;2024-03-07T09:40:18;101731.59;;;11.09;83.70
75886;BME280;64561;44.018;10.144;2024-03-07T09:42:48;101733.94;;;11.27;86.56
75886;BME280;64561;44.018;10.144;2024-03-07T09:45:20;101724.09;;;11.38;86.50
75886;BME280;64561;44.018;10.144;2024-03-07T09:47:49;101733.06;;;11.51;84.92
75886;BME280;64561;44.018;10.144;2024-03-07T09:50:20;101729.69;;;11.52;81.71
75886;BME280;64561;44.018;10.144;2024-03-07T09:52:52;101728.78;;;11.50;82.68
75886;BME280;64561;44.018;10.144;2024-03-07T09:55:22;101725.59;;;11.57;82.32
75886;BME280;64561;44.018;10.144;2024-03-07T09:57:54;101729.00;;;11.56;82.37
75886;BME280;64561;44.018;10.144;2024-03-07T10:00:24;101730.28;;;11.68;80.93
75886;BME280;64561;44.018;10.144;2024-03-07T10:03:12;101742.00;;;11.86;79.30
75886;BME280;64561;44.018;10.144;2024-03-07T10:05:42;101741.19;;;11.87;77.99
75886;BME280;64561;44.018;10.144;2024-03-07T10:08:10;101740.41;;;11.89;81.11
75886;BME280;64561;44.018;10.144;2024-03-07T10:10:38;101746.09;;;12.06;78.75
75886;BME280;64561;44.018;10.144;2024-03-07T10:13:05;101741.97;;;12.11;77.95
75886;BME280;64561;44.018;10.144;2024-03-07T10:15:35;101748.16;;;12.18;78.57
75886;BME280;64561;44.018;10.144;2024-03-07T10:18:07;101751.56;;;12.17;76.73
75886;BME280;64561;44.018;10.144;2024-03-07T10:20:37;101746.69;;;12.25;75.57
75886;BME280;64561;44.018;10.144;2024-03-07T10:23:07;101751.75;;;12.23;75.74
75886;BME280;64561;44.018;10.144;2024-03-07T10:25:37;101746.59;;;12.22;75.74
75886;BME280;64561;44.018;10.144;2024-03-07T10:28:06;101753.75;;;12.32;77.75
75886;BME280;64561;44.018;10.144;2024-03-07T10:30:43;101750.50;;;12.38;75.82
75886;BME280;64561;44.018;10.144;2024-03-07T10:33:14;101757.19;;;12.32;72.93
75886;BME280;64561;44.018;10.144;2024-03-07T10:35:41;101761.66;;;12.38;73.14
75886;BME280;64561;44.018;10.144;2024-03-07T10:38:09;101763.53;;;12.44;75.94
75886;BME280;64561;44.018;10.144;2024-03-07T10:40:41;101765.47;;;12.51;76.97
75886;BME280;64561;44.018;10.144;2024-03-07T10:43:11;101768.22;;;12.57;75.68
75886;BME280;64561;44.018;10.144;2024-03-07T10:45:46;101767.59;;;12.64;74.48
75886;BME280;64561;44.018;10.144;2024-03-07T10:48:19;101770.34;;;12.70;74.59
75886;BME280;64561;44.018;10.144;2024-03-07T10:50:52;101766.22;;;12.75;73.14
75886;BME280;64561;44.018;10.144;2024-03-07T10:53:42;101767.72;;;12.69;73.74
75886;BME280;64561;44.018;10.144;2024-03-07T10:56:45;101767.88;;;12.73;70.67
75886;BME280;64561;44.018;10.144;2024-03-07T10:59:19;101753.09;;;12.66;71.76
75886;BME280;64561;44.018;10.144;2024-03-07T11:02:33;101756.59;;;12.68;71.97
75886;BME280;64561;44.018;10.144;2024-03-07T11:04:35;101754.19;;;12.73;73.68
75886;BME280;64561;44.018;10.144;2024-03-07T11:07:02;101756.19;;;12.83;74.64
75886;BME280;64561;44.018;10.144;2024-03-07T11:09:30;101749.16;;;12.77;70.08
75886;BME280;64561;44.018;10.144;2024-03-07T11:12:01;101747.63;;;12.84;72.97
75886;BME280;64561;44.018;10.144;2024-03-07T11:14:34;101744.25;;;12.85;69.49
75886;BME280;64561;44.018;10.144;2024-03-07T11:17:04;101731.28;;;12.80;70.90
75886;BME280;64561;44.018;10.144;2024-03-07T11:19:32;101732.91;;;12.78;71.01
75886;BME280;64561;44.018;10.144;2024-03-07T11:22:03;101728.09;;;12.89;70.96
75886;BME280;64561;44.018;10.144;2024-03-07T11:24:43;101722.72;;;12.81;71.40
75886;BME280;64561;44.018;10.144;2024-03-07T11:27:12;101730.06;;;12.98;73.44
75886;BME280;64561;44.018;10.144;2024-03-07T11:32:19;101710.88;;;13.15;69.93
75886;BME280;64561;44.018;10.144;2024-03-07T11:34:53;101710.44;;;13.30;70.23
75886;BME280;64561;44.018;10.144;2024-03-07T11:37:38;101709.06;;;13.43;68.26
75886;BME280;64561;44.018;10.144;2024-03-07T11:40:11;101702.59;;;13.25;65.12
75886;BME280;64561;44.018;10.144;2024-03-07T11:42:47;101695.53;;;13.18;69.74
75886;BME280;64561;44.018;10.144;2024-03-07T11:45:15;101696.63;;;13.26;70.25
75886;BME280;64561;44.018;10.144;2024-03-07T11:48:06;101692.09;;;13.49;67.35
75886;BME280;64561;44.018;10.144;2024-03-07T11:50:40;101692.63;;;13.71;69.92
75886;BME280;64561;44.018;10.144;2024-03-07T11:53:09;101695.63;;;13.88;67.30
75886;BME280;64561;44.018;10.144;2024-03-07T11:55:37;101692.44;;;13.98;70.67
75886;BME280;64561;44.018;10.144;2024-03-07T12:00:44;101682.22;;;14.01;67.52
75886;BME280;64561;44.018;10.144;2024-03-07T12:03:13;101684.06;;;14.05;66.04
75886;BME280;64561;44.018;10.144;2024-03-07T12:05:41;101681.44;;;14.04;66.29
75886;BME280;64561;44.018;10.144;2024-03-07T12:08:11;101679.00;;;14.10;67.63
75886;BME280;64561;44.018;10.144;2024-03-07T12:10:39;101680.97;;;14.22;65.39
75886;BME280;64561;44.018;10.144;2024-03-07T12:13:14;101676.75;;;14.24;67.08
75886;BME280;64561;44.018;10.144;2024-03-07T12:15:46;101676.81;;;14.27;68.94
75886;BME280;64561;44.018;10.144;2024-03-07T12:18:14;101675.06;;;14.26;68.91
75886;BME280;64561;44.018;10.144;2024-03-07T12:20:43;101679.53;;;14.34;66.40
75886;BME280;64561;44.018;10.144;2024-03-07T12:23:23;101677.16;;;14.42;67.80
75886;BME280;64561;44.018;10.144;2024-03-07T12:26:03;101666.00;;;14.41;65.07
75886;BME280;64561;44.018;10.144;2024-03-07T12:28:31;101671.06;;;14.38;65.34
75886;BME280;64561;44.018;10.144;2024-03-07T12:31:02;101669.22;;;14.33;66.02
75886;BME280;64561;44.018;10.144;2024-03-07T12:33:32;101678.72;;;14.35;65.84
75886;BME280;64561;44.018;10.144;2024-03-07T12:36:07;101678.81;;;14.40;67.28
75886;BME280;64561;44.018;10.144;2024-03-07T12:38:36;101671.00;;;14.35;66.54
75886;BME280;64561;44.018;10.144;2024-03-07T12:41:08;101672.66;;;14.33;65.22
75886;BME280;64561;44.018;10.144;2024-03-07T12:43:43;101674.31;;;14.31;65.05
75886;BME280;64561;44.018;10.144;2024-03-07T12:46:12;101665.78;;;14.32;67.98
75886;BME280;64561;44.018;10.144;2024-03-07T12:48:41;101658.88;;;14.31;66.67
75886;BME280;64561;44.018;10.144;2024-03-07T12:51:09;101670.97;;;14.34;63.67
75886;BME280;64561;44.018;10.144;2024-03-07T12:53:37;101664.91;;;14.32;66.47
75886;BME280;64561;44.018;10.144;2024-03-07T12:56:04;101657.81;;;14.22;64.83